createdAt,value
2022-07-28T00:01:25.495Z,85.61
2022-07-28T00:03:54.171Z,85.87
2022-07-28T00:06:22.693Z,86.09
2022-07-28T00:08:51.263Z,86.16
2022-07-28T00:11:19.757Z,86.21
2022-07-28T00:13:48.305Z,86.20
2022-07-28T00:16:17.056Z,86.06
2022-07-28T00:18:45.706Z,86.02
2022-07-28T00:21:14.302Z,86.01
2022-07-28T00:23:42.920Z,85.99
2022-07-28T00:26:12.669Z,85.98
2022-07-28T00:28:41.225Z,85.95
2022-07-28T00:31:09.808Z,85.96
2022-07-28T00:33:40.280Z,86.18
2022-07-28T00:36:11.746Z,86.45
2022-07-28T00:38:44.289Z,86.75
2022-07-28T00:41:14.523Z,87.10
2022-07-28T00:43:46.740Z,87.05
2022-07-28T00:46:18.553Z,86.87
2022-07-28T00:48:53.624Z,86.83
2022-07-28T00:51:25.393Z,87.08
2022-07-28T00:53:55.112Z,87.15
2022-07-28T00:56:24.359Z,87.29
2022-07-28T00:58:53.331Z,87.73
2022-07-28T01:01:22.852Z,88.03
2022-07-28T01:03:59.856Z,88.45
2022-07-28T01:06:53.731Z,88.73
2022-07-28T01:09:52.945Z,88.80
2022-07-28T01:12:51.395Z,87.54
2022-07-28T01:15:37.953Z,87.25
2022-07-28T01:18:21.511Z,87.27
2022-07-28T01:20:59.402Z,87.49
2022-07-28T01:23:32.313Z,87.35
2022-07-28T01:26:39.780Z,87.28
2022-07-28T01:29:37.237Z,88.06
2022-07-28T01:32:19.201Z,88.15
2022-07-28T01:35:06.028Z,88.49
2022-07-28T01:37:39.894Z,88.66
2022-07-28T01:40:11.837Z,88.80
2022-07-28T01:42:46.865Z,88.98
2022-07-28T01:45:16.550Z,88.98
2022-07-28T01:47:47.582Z,89.16
2022-07-28T01:50:20.432Z,89.41
2022-07-28T01:52:51.338Z,89.56
2022-07-28T01:55:23.924Z,89.49
2022-07-28T01:57:57.213Z,89.40
2022-07-28T02:00:27.867Z,89.57
2022-07-28T02:02:58.247Z,90.10
2022-07-28T02:05:29.735Z,90.41
2022-07-28T02:08:01.541Z,90.41
2022-07-28T02:10:31.959Z,90.42
2022-07-28T02:13:02.396Z,90.73
2022-07-28T02:15:32.618Z,90.67
2022-07-28T02:18:02.648Z,90.68
2022-07-28T02:20:32.610Z,90.60
2022-07-28T02:23:01.354Z,90.35
2022-07-28T02:25:31.021Z,90.24
2022-07-28T02:28:06.684Z,89.84
2022-07-28T02:31:01.903Z,89.31
2022-07-28T02:34:00.409Z,89.08
2022-07-28T02:36:35.380Z,89.28
2022-07-28T02:39:16.016Z,89.32
2022-07-28T02:41:44.782Z,89.52
2022-07-28T02:44:18.512Z,89.51
2022-07-28T02:46:52.969Z,89.52
2022-07-28T02:49:42.193Z,89.49
2022-07-28T02:52:13.989Z,89.44
2022-07-28T02:54:44.051Z,89.43
2022-07-28T02:57:14.100Z,89.56
2022-07-28T02:59:44.152Z,89.82
2022-07-28T03:02:13.414Z,89.98
2022-07-28T03:04:58.832Z,90.09
2022-07-28T03:07:29.916Z,90.23
2022-07-28T03:10:00.012Z,89.80
2022-07-28T03:12:28.543Z,89.62
2022-07-28T03:14:57.036Z,89.68
2022-07-28T03:17:25.507Z,90.10
2022-07-28T03:19:54.010Z,90.14
2022-07-28T03:22:22.496Z,90.29
2022-07-28T03:24:54.913Z,90.63
2022-07-28T03:27:31.659Z,90.60
2022-07-28T03:30:08.806Z,90.35
2022-07-28T03:32:43.196Z,90.19
2022-07-28T03:35:13.184Z,90.37
2022-07-28T03:37:53.678Z,90.69
2022-07-28T03:40:27.056Z,91.04
2022-07-28T03:42:58.099Z,91.31
2022-07-28T03:45:27.181Z,91.57
2022-07-28T03:47:58.746Z,91.76
2022-07-28T03:50:31.328Z,91.83
2022-07-28T03:53:03.221Z,92.11
2022-07-28T03:55:31.771Z,92.32
2022-07-28T03:58:01.047Z,92.71
2022-07-28T04:00:29.628Z,92.88
2022-07-28T04:02:58.369Z,92.77
2022-07-28T04:05:26.901Z,92.91
2022-07-28T04:07:55.413Z,92.97
2022-07-28T04:10:24.105Z,93.04
2022-07-28T04:12:58.071Z,93.18
2022-07-28T04:15:28.699Z,93.47
2022-07-28T04:17:57.333Z,93.62
2022-07-28T04:20:28.196Z,93.64
2022-07-28T04:22:57.030Z,93.81
2022-07-28T04:25:28.019Z,94.10
2022-07-28T04:27:56.561Z,94.22
2022-07-28T04:30:25.638Z,94.42
2022-07-28T04:32:56.223Z,94.45
2022-07-28T04:35:26.204Z,94.57
2022-07-28T04:37:58.492Z,94.68
2022-07-28T04:40:28.268Z,94.79
2022-07-28T04:42:56.827Z,94.91
2022-07-28T04:45:25.630Z,94.83
2022-07-28T04:47:54.290Z,94.90
2022-07-28T04:50:22.904Z,94.87
2022-07-28T04:52:51.575Z,94.81
2022-07-28T04:55:20.257Z,94.78
2022-07-28T04:57:48.778Z,94.73
2022-07-28T05:00:17.574Z,94.67
2022-07-28T05:02:46.605Z,94.66
2022-07-28T05:05:15.356Z,94.60
2022-07-28T05:07:44.365Z,94.46
2022-07-28T05:10:13.201Z,94.39
2022-07-28T05:12:41.835Z,94.26
2022-07-28T05:15:10.554Z,94.13
2022-07-28T05:17:39.760Z,93.99
2022-07-28T05:20:09.014Z,94.00
2022-07-28T05:22:46.496Z,93.90
2022-07-28T05:25:20.881Z,93.73
2022-07-28T05:27:51.184Z,93.71
2022-07-28T05:30:20.918Z,93.70
2022-07-28T05:32:49.578Z,93.64
2022-07-28T05:35:18.153Z,93.40
2022-07-28T05:37:46.736Z,93.33
2022-07-28T05:40:16.058Z,93.26
2022-07-28T05:42:47.693Z,93.49
2022-07-28T05:45:17.633Z,93.78
2022-07-28T05:47:50.098Z,93.76
2022-07-28T05:50:22.081Z,94.01
2022-07-28T05:52:51.477Z,93.71
2022-07-28T05:55:20.192Z,92.89
2022-07-28T05:57:48.993Z,92.34
2022-07-28T06:00:22.271Z,92.24
2022-07-28T06:02:51.256Z,92.29
2022-07-28T06:05:22.922Z,91.64
2022-07-28T06:07:51.768Z,91.10
2022-07-28T06:10:24.070Z,90.78
2022-07-28T06:12:57.921Z,89.90
2022-07-28T06:15:28.316Z,88.88
2022-07-28T06:17:56.810Z,88.53
2022-07-28T06:20:27.877Z,88.20
2022-07-28T06:22:57.340Z,87.60
2022-07-28T06:25:29.990Z,87.18
2022-07-28T06:28:03.082Z,86.78
2022-07-28T06:30:32.607Z,86.45
2022-07-28T06:33:01.695Z,86.14
2022-07-28T06:35:30.298Z,85.95
2022-07-28T06:38:11.852Z,85.69
2022-07-28T06:40:40.528Z,85.42
2022-07-28T06:43:09.263Z,85.09
2022-07-28T06:45:37.864Z,84.51
2022-07-28T06:48:08.210Z,84.10
2022-07-28T06:50:39.446Z,83.68
2022-07-28T06:53:08.096Z,83.50
2022-07-28T06:55:37.984Z,83.12
2022-07-28T06:58:06.592Z,82.78
2022-07-28T07:00:35.267Z,82.33
2022-07-28T07:03:03.942Z,81.92
2022-07-28T07:05:32.922Z,81.58
2022-07-28T07:08:01.591Z,81.10
2022-07-28T07:10:30.118Z,81.09
2022-07-28T07:12:58.784Z,80.72
2022-07-28T07:15:27.613Z,80.47
2022-07-28T07:17:56.278Z,79.90
2022-07-28T07:20:24.830Z,79.24
2022-07-28T07:22:53.440Z,79.01
2022-07-28T07:25:22.137Z,78.99
2022-07-28T07:27:50.720Z,78.56
2022-07-28T07:30:19.237Z,78.17
2022-07-28T07:32:48.066Z,78.26
2022-07-28T07:35:16.820Z,77.99
2022-07-28T07:37:45.366Z,77.62
2022-07-28T07:40:14.027Z,77.26
2022-07-28T07:42:42.561Z,76.82
2022-07-28T07:45:11.392Z,76.53
2022-07-28T07:47:41.040Z,76.07
2022-07-28T07:50:09.822Z,75.47
2022-07-28T07:52:38.537Z,75.33
2022-07-28T07:55:08.000Z,75.40
2022-07-28T07:57:36.495Z,75.06
2022-07-28T08:00:05.995Z,74.74
2022-07-28T08:02:34.608Z,74.38
2022-07-28T08:05:03.309Z,73.48
2022-07-28T08:07:31.901Z,72.65
2022-07-28T08:10:00.881Z,72.43
2022-07-28T08:12:29.870Z,72.02
2022-07-28T08:14:58.563Z,72.10
2022-07-28T08:17:27.144Z,71.79
2022-07-28T08:19:56.434Z,71.35
2022-07-28T08:22:25.122Z,70.96
2022-07-28T08:24:53.857Z,69.95
2022-07-28T08:27:22.475Z,69.64
2022-07-28T08:29:50.964Z,69.68
2022-07-28T08:32:19.538Z,69.16
2022-07-28T08:34:48.024Z,69.16
2022-07-28T08:37:16.594Z,68.81
2022-07-28T08:39:45.485Z,68.22
2022-07-28T08:42:53.315Z,68.02
2022-07-28T08:45:22.527Z,68.08
2022-07-28T08:48:07.772Z,67.78
2022-07-28T08:50:39.568Z,67.39
2022-07-28T08:53:08.877Z,67.14
2022-07-28T08:55:38.108Z,66.39
2022-07-28T08:58:07.486Z,66.36
2022-07-28T09:00:36.068Z,65.84
2022-07-28T09:03:05.902Z,65.85
2022-07-28T09:05:35.982Z,65.72
2022-07-28T09:08:05.787Z,64.95
2022-07-28T09:10:34.382Z,64.73
2022-07-28T09:13:02.940Z,64.41
2022-07-28T09:15:32.945Z,64.46
2022-07-28T09:18:02.368Z,64.25
2022-07-28T09:20:31.061Z,64.00
2022-07-28T09:23:02.502Z,63.63
2022-07-28T09:25:31.762Z,63.20
2022-07-28T09:28:26.724Z,62.71
2022-07-28T09:30:55.334Z,62.23
2022-07-28T09:33:43.141Z,61.95
2022-07-28T09:36:16.682Z,60.78
2022-07-28T09:38:47.472Z,60.87
2022-07-28T09:41:19.067Z,60.40
2022-07-28T09:43:54.841Z,59.77
2022-07-28T09:46:27.418Z,59.22
2022-07-28T09:49:02.471Z,59.25
2022-07-28T09:51:35.987Z,59.10
2022-07-28T09:54:19.739Z,58.72
2022-07-28T09:56:48.546Z,59.07
2022-07-28T09:59:19.183Z,59.31
2022-07-28T10:02:01.809Z,58.77
2022-07-28T10:04:38.300Z,58.83
2022-07-28T10:07:11.490Z,58.69
2022-07-28T10:09:41.352Z,58.53
2022-07-28T10:12:25.436Z,57.72
2022-07-28T10:15:00.364Z,56.75
2022-07-28T10:17:34.550Z,56.81
2022-07-28T10:20:07.291Z,56.60
2022-07-28T10:22:43.090Z,56.12
2022-07-28T10:25:13.090Z,55.92
2022-07-28T10:27:43.439Z,54.78
2022-07-28T10:30:13.543Z,54.85
2022-07-28T10:32:46.425Z,54.97
2022-07-28T10:35:18.229Z,55.22
2022-07-28T10:38:16.918Z,54.88
2022-07-28T10:40:49.692Z,55.07
2022-07-28T10:43:19.474Z,55.23
2022-07-28T10:46:06.900Z,55.03
2022-07-28T10:48:40.439Z,54.47
2022-07-28T10:51:12.476Z,54.33
2022-07-28T10:53:54.477Z,54.45
2022-07-28T10:56:34.310Z,54.18
2022-07-28T10:59:12.159Z,53.77
2022-07-28T11:01:50.452Z,53.02
2022-07-28T11:04:41.149Z,49.56
2022-07-28T11:07:12.435Z,50.10
2022-07-28T11:09:41.411Z,50.09
2022-07-28T11:12:15.408Z,50.43
2022-07-28T11:14:45.093Z,50.29
2022-07-28T11:17:24.081Z,49.69
2022-07-28T11:20:24.906Z,49.66
2022-07-28T11:22:44.704Z,49.03
2022-07-28T11:25:20.488Z,49.01
2022-07-28T11:27:51.894Z,48.86
2022-07-28T11:30:33.118Z,48.85
2022-07-28T11:33:07.260Z,49.13
2022-07-28T11:35:41.791Z,49.04
2022-07-28T11:38:14.778Z,48.86
2022-07-28T11:40:46.722Z,48.95
2022-07-28T11:43:22.556Z,49.06
2022-07-28T11:46:14.561Z,49.04
2022-07-28T11:48:45.470Z,49.41
2022-07-28T11:51:14.661Z,49.65
2022-07-28T11:53:48.453Z,49.31
2022-07-28T11:56:29.394Z,49.15
2022-07-28T11:59:06.194Z,48.98
2022-07-28T12:01:37.064Z,49.59
2022-07-28T12:04:16.185Z,49.70
2022-07-28T12:06:49.459Z,49.98
2022-07-28T12:09:26.277Z,49.47
2022-07-28T12:11:56.873Z,48.69
2022-07-28T12:14:30.168Z,48.52
2022-07-28T12:16:58.720Z,48.37
2022-07-28T12:19:32.908Z,45.50
2022-07-28T12:22:01.802Z,45.34
2022-07-28T12:24:45.777Z,45.59
2022-07-28T12:27:16.605Z,45.52
2022-07-28T12:30:02.150Z,45.34
2022-07-28T12:32:35.159Z,45.28
2022-07-28T12:35:05.591Z,45.18
2022-07-28T12:37:34.275Z,44.57
2022-07-28T12:40:02.930Z,44.51
2022-07-28T12:42:32.562Z,44.46
2022-07-28T12:45:04.899Z,44.48
2022-07-28T12:47:34.932Z,44.61
2022-07-28T12:50:19.179Z,45.13
2022-07-28T12:53:05.758Z,46.18
2022-07-28T12:55:34.729Z,45.69
2022-07-28T12:58:04.710Z,44.98
2022-07-28T13:00:36.537Z,45.05
2022-07-28T13:03:52.010Z,44.81
2022-07-28T13:06:22.426Z,44.67
2022-07-28T13:08:54.537Z,45.12
2022-07-28T13:11:47.958Z,42.93
2022-07-28T13:14:16.994Z,42.43
2022-07-28T13:16:58.116Z,42.87
2022-07-28T13:19:26.652Z,42.74
2022-07-28T13:22:01.614Z,42.19
2022-07-28T13:24:31.867Z,42.23
2022-07-28T13:27:02.587Z,43.04
2022-07-28T13:29:35.689Z,43.64
2022-07-28T13:32:04.639Z,43.85
2022-07-28T13:34:33.489Z,43.70
2022-07-28T13:37:02.055Z,43.08
2022-07-28T13:39:30.712Z,43.17
2022-07-28T13:41:59.601Z,42.94
2022-07-28T13:44:37.135Z,43.22
2022-07-28T13:47:06.467Z,41.84
2022-07-28T13:49:37.521Z,41.77
2022-07-28T13:52:12.861Z,42.71
2022-07-28T13:54:41.588Z,42.74
2022-07-28T13:57:12.301Z,42.42
2022-07-28T13:59:44.100Z,42.17
2022-07-28T14:02:15.752Z,41.91
2022-07-28T14:04:48.903Z,42.34
2022-07-28T14:07:19.713Z,42.59
2022-07-28T14:09:50.911Z,42.81
2022-07-28T14:12:19.517Z,43.49
2022-07-28T14:14:48.925Z,43.19
2022-07-28T14:17:43.755Z,42.41
2022-07-28T14:20:13.588Z,42.12
2022-07-28T14:22:44.216Z,41.72
2022-07-28T14:25:19.777Z,39.23
2022-07-28T14:27:51.669Z,39.28
2022-07-28T14:30:22.981Z,39.32
2022-07-28T14:32:52.733Z,39.70
2022-07-28T14:35:21.897Z,39.09
2022-07-28T14:40:40.367Z,40.15
2022-07-28T14:43:09.593Z,40.48
2022-07-28T14:46:01.619Z,40.97
2022-07-28T14:48:27.350Z,41.29
2022-07-28T14:50:57.213Z,41.15
2022-07-28T14:53:27.749Z,41.13
2022-07-28T14:55:57.231Z,41.11
2022-07-28T15:13:57.821Z,36.88
2022-07-28T15:16:26.598Z,36.54
2022-07-28T15:18:55.604Z,37.44
2022-07-28T15:21:24.236Z,37.97
2022-07-28T15:23:53.597Z,38.47
2022-07-28T15:26:22.165Z,38.67
2022-07-28T15:28:50.776Z,38.95
2022-07-28T15:31:20.749Z,39.12
2022-07-28T15:33:54.905Z,39.17
2022-07-28T15:36:27.074Z,38.80
2022-07-28T15:38:55.942Z,38.25
2022-07-28T15:41:24.550Z,36.73
2022-07-28T15:43:53.129Z,35.44
2022-07-28T15:46:21.740Z,35.98
2022-07-28T15:48:50.564Z,35.94
2022-07-28T15:51:22.619Z,36.24
2022-07-28T15:53:56.478Z,36.06
2022-07-28T16:14:18.898Z,37.87
2022-07-28T16:16:48.169Z,37.98
2022-07-28T16:19:38.697Z,37.97
2022-07-28T16:22:05.768Z,38.01
2022-07-28T16:24:35.950Z,38.29
2022-07-28T16:27:04.763Z,37.94
2022-07-28T16:29:33.302Z,35.14
2022-07-28T16:32:01.876Z,34.21
2022-07-28T16:34:30.496Z,34.12
2022-07-28T16:36:59.731Z,34.17
2022-07-28T16:39:28.297Z,34.11
2022-07-28T16:41:57.473Z,34.44
2022-07-28T16:44:26.235Z,34.35
2022-07-28T16:46:54.766Z,34.75
2022-07-28T16:49:24.085Z,34.88
2022-07-28T16:51:52.987Z,34.98
2022-07-28T16:54:21.717Z,34.70
2022-07-28T16:56:50.508Z,34.97
2022-07-28T16:59:19.017Z,35.76
2022-07-28T17:01:47.643Z,36.49
2022-07-28T17:04:16.907Z,36.77
2022-07-28T17:06:47.767Z,36.76
2022-07-28T17:09:17.544Z,36.78
2022-07-28T17:11:46.216Z,36.80
2022-07-28T17:14:17.040Z,36.85
2022-07-28T17:16:46.316Z,36.77
2022-07-28T17:19:14.825Z,36.67
2022-07-28T17:21:43.403Z,36.18
2022-07-28T17:24:13.443Z,33.74
2022-07-28T17:29:30.833Z,34.08
2022-07-28T17:31:59.397Z,34.12
2022-07-28T17:34:27.986Z,34.25
2022-07-28T17:36:57.855Z,34.62
2022-07-28T17:39:26.361Z,34.86
2022-07-28T17:41:55.861Z,34.89
2022-07-28T17:44:30.615Z,35.53
2022-07-28T17:47:03.604Z,36.11
2022-07-28T17:49:32.330Z,36.40
2022-07-28T17:52:01.671Z,36.79
2022-07-28T17:54:50.777Z,36.65
2022-07-28T17:57:20.447Z,36.67
2022-07-28T17:59:51.251Z,36.42
2022-07-28T18:02:20.826Z,36.26
2022-07-28T18:04:50.295Z,36.37
2022-07-28T18:07:18.907Z,36.39
2022-07-28T18:09:47.575Z,36.70
2022-07-28T18:12:17.359Z,36.90
2022-07-28T18:14:48.704Z,36.96
2022-07-28T18:17:27.107Z,36.95
2022-07-28T18:19:57.569Z,37.38
2022-07-28T18:22:26.266Z,37.58
2022-07-28T18:24:54.792Z,38.23
2022-07-28T18:27:23.305Z,38.54
2022-07-28T18:29:52.201Z,38.82
2022-07-28T18:32:20.806Z,39.10
2022-07-28T18:34:49.322Z,39.68
2022-07-28T18:37:17.991Z,39.96
2022-07-28T18:39:46.686Z,40.35
2022-07-28T18:42:16.516Z,40.81
2022-07-28T18:44:45.081Z,41.35
2022-07-28T18:47:13.747Z,41.65
2022-07-28T18:49:42.333Z,42.01
2022-07-28T18:52:10.941Z,42.64
2022-07-28T18:54:39.631Z,42.78
2022-07-28T18:57:08.159Z,43.20
2022-07-28T18:59:41.597Z,43.62
2022-07-28T19:02:14.869Z,43.96
2022-07-28T19:04:47.243Z,44.40
2022-07-28T19:07:16.415Z,44.82
2022-07-28T19:09:45.002Z,45.38
2022-07-28T19:12:13.731Z,45.51
2022-07-28T19:14:42.252Z,46.01
2022-07-28T19:17:11.532Z,46.18
2022-07-28T19:19:40.117Z,46.60
2022-07-28T19:22:09.847Z,46.80
2022-07-28T19:24:38.654Z,47.26
2022-07-28T19:27:07.323Z,47.40
2022-07-28T19:29:36.146Z,47.71
2022-07-28T19:32:06.027Z,47.93
2022-07-28T19:34:36.107Z,48.11
2022-07-28T19:37:04.679Z,48.33
2022-07-28T19:39:34.696Z,48.69
2022-07-28T19:42:09.036Z,48.83
2022-07-28T19:44:38.450Z,49.09
2022-07-28T19:47:07.326Z,49.07
2022-07-28T19:49:36.055Z,49.30
2022-07-28T19:52:05.312Z,49.57
2022-07-28T19:54:33.891Z,49.73
2022-07-28T19:57:02.489Z,49.97
2022-07-28T19:59:41.104Z,50.22
2022-07-28T20:02:09.796Z,50.37
2022-07-28T20:04:38.914Z,50.61
2022-07-28T20:07:08.073Z,50.85
2022-07-28T20:09:36.911Z,51.11
2022-07-28T20:12:07.827Z,51.32
2022-07-28T20:14:37.936Z,51.46
2022-07-28T20:17:07.382Z,51.64
2022-07-28T20:19:35.985Z,51.77
2022-07-28T20:22:04.541Z,51.97
2022-07-28T20:24:33.070Z,52.10
2022-07-28T20:27:03.815Z,52.26
2022-07-28T20:29:32.397Z,52.48
2022-07-28T20:32:01.054Z,52.71
2022-07-28T20:34:29.871Z,52.89
2022-07-28T20:36:58.459Z,53.12
2022-07-28T20:39:44.286Z,53.35
2022-07-28T20:42:13.416Z,53.51
2022-07-28T20:44:42.234Z,53.58
2022-07-28T20:47:10.706Z,53.79
2022-07-28T20:49:39.484Z,53.96
2022-07-28T20:52:08.092Z,54.13
2022-07-28T20:54:36.779Z,54.33
2022-07-28T20:57:05.453Z,54.59
2022-07-28T20:59:33.966Z,54.79
2022-07-28T21:03:28.332Z,54.76
2022-07-28T21:05:56.890Z,54.88
2022-07-28T21:08:25.514Z,55.16
2022-07-28T21:10:56.055Z,55.39
2022-07-28T21:14:01.820Z,55.48
2022-07-28T21:16:31.068Z,55.74
2022-07-28T21:18:59.742Z,55.84
2022-07-28T21:21:29.087Z,55.86
2022-07-28T21:23:57.655Z,55.99
2022-07-28T21:26:26.321Z,56.26
2022-07-28T21:32:02.137Z,56.83
2022-07-28T21:34:35.475Z,56.93
2022-07-28T21:37:06.758Z,56.97
2022-07-28T21:39:36.685Z,57.33
2022-07-28T21:42:08.084Z,57.37
2022-07-28T21:44:37.894Z,57.39
2022-07-28T21:47:06.642Z,57.40
2022-07-28T21:49:35.282Z,57.48
2022-07-28T21:52:04.180Z,57.57
2022-07-28T21:54:32.703Z,57.72
2022-07-28T21:57:01.213Z,57.89
2022-07-28T21:59:34.754Z,58.11
2022-07-28T22:02:03.409Z,58.16
2022-07-28T22:04:32.114Z,58.14
2022-07-28T22:07:00.692Z,58.36
2022-07-28T22:09:31.834Z,58.40
2022-07-28T22:12:02.272Z,58.56
2022-07-28T22:14:32.501Z,58.56
2022-07-28T22:17:01.952Z,58.86
2022-07-28T22:19:31.832Z,59.07
2022-07-28T22:22:00.405Z,59.17
2022-07-28T22:24:28.985Z,59.25
2022-07-28T22:26:57.837Z,59.42
2022-07-28T22:29:26.688Z,59.45
2022-07-28T22:31:59.857Z,59.68
2022-07-28T22:34:28.540Z,59.81
2022-07-28T22:36:57.146Z,59.76
2022-07-28T22:39:25.681Z,60.02
2022-07-28T22:41:54.354Z,60.10
2022-07-28T22:44:22.883Z,60.28
2022-07-28T22:46:51.888Z,60.28
2022-07-28T22:49:20.900Z,60.49
2022-07-28T22:51:50.470Z,60.54
2022-07-28T22:54:19.058Z,60.53
2022-07-28T22:56:47.957Z,60.71
2022-07-28T22:59:17.834Z,60.68
2022-07-28T23:01:46.622Z,60.77
2022-07-28T23:04:15.589Z,60.86
2022-07-28T23:06:44.342Z,61.00
2022-07-28T23:09:13.391Z,61.10
2022-07-28T23:11:41.948Z,61.35
2022-07-28T23:14:24.187Z,61.42
2022-07-28T23:16:52.906Z,61.59
2022-07-28T23:19:21.448Z,61.57
2022-07-28T23:21:50.451Z,61.77
2022-07-28T23:24:19.257Z,61.78
2022-07-28T23:26:48.373Z,62.11
2022-07-28T23:29:16.959Z,62.09
2022-07-28T23:31:45.533Z,62.24
2022-07-28T23:34:14.352Z,62.57
2022-07-28T23:36:43.121Z,62.67
2022-07-28T23:39:11.669Z,62.85
2022-07-28T23:41:40.453Z,62.91
2022-07-28T23:44:09.034Z,62.94
2022-07-28T23:46:37.743Z,63.23
2022-07-28T23:49:06.935Z,63.34
2022-07-28T23:51:47.209Z,63.47
2022-07-28T23:54:17.662Z,63.71
2022-07-28T23:56:46.533Z,63.86
2022-07-28T23:59:15.056Z,63.83
